Time;durP1;ratioP1;P1;durP2;ratioP2;P2;SDS_P1;SDS_P2;PMS_P1;PMS_P2;Temp;Humidity;BMP_temperature;BMP_pressure;BME280_temperature;BME280_humidity;BME280_pressure;Samples;Min_cycle;Max_cycle;Signal;HPM_P1;HPM_P2
2023/04/24 00:00:09;;;;;;;;;3.00;1.50;;;;;20.13;45.95;100203.78;5034709;28;45200;-59
2023/04/24 00:02:37;;;;;;;;;2.00;2.00;;;;;20.12;45.61;100204.75;5040802;28;44740;-58
2023/04/24 00:05:07;;;;;;;;;3.00;1.00;;;;;20.13;46.16;100211.69;5026399;28;45375;-56
2023/04/24 00:07:32;;;;;;;;;2.00;2.00;;;;;20.11;46.40;100213.59;5023242;28;46197;-59
2023/04/24 00:09:58;;;;;;;;;2.00;2.00;;;;;20.07;45.99;100205.03;5021222;28;45506;-59
2023/04/24 00:12:24;;;;;;;;;4.00;2.50;;;;;20.10;45.92;100211.91;5020102;28;45316;-58
2023/04/24 00:14:49;;;;;;;;;2.00;2.00;;;;;20.08;46.39;100220.72;5020145;28;45443;-58
2023/04/24 00:17:14;;;;;;;;;2.00;2.00;;;;;20.06;46.10;100212.06;5020070;28;66088;-58
2023/04/24 00:19:40;;;;;;;;;0.00;0.00;;;;;20.08;46.49;100226.00;5019732;28;45268;-58
2023/04/24 00:22:05;;;;;;;;;2.00;2.00;;;;;20.08;46.39;100235.66;5022385;28;45198;-60
2023/04/24 00:24:30;;;;;;;;;2.00;2.00;;;;;20.07;45.79;100239.22;5027371;28;55968;-57
2023/04/24 00:26:56;;;;;;;;;2.00;2.00;;;;;20.04;46.71;100229.75;5021167;28;45966;-59
2023/04/24 00:29:21;;;;;;;;;2.00;2.00;;;;;20.08;45.67;100247.03;5021252;28;54949;-59
2023/04/24 00:31:46;;;;;;;;;1.50;1.50;;;;;20.06;46.01;100238.38;5021229;28;45418;-59
2023/04/24 00:34:12;;;;;;;;;2.00;2.00;;;;;20.06;45.97;100245.44;5021693;28;52187;-60
2023/04/24 00:36:37;;;;;;;;;3.00;2.00;;;;;20.05;45.96;100249.84;5024115;28;46187;-58
2023/04/24 00:39:03;;;;;;;;;1.25;1.00;;;;;20.05;46.10;100246.38;5025300;28;45296;-58
2023/04/24 00:41:29;;;;;;;;;2.00;1.50;;;;;20.04;46.24;100249.97;5024367;28;45316;-59
2023/04/24 00:43:55;;;;;;;;;2.00;2.00;;;;;20.03;46.46;100258.78;5029988;28;44794;-57
2023/04/24 00:46:21;;;;;;;;;2.00;2.00;;;;;20.03;45.94;100259.63;5028116;28;45291;-58
2023/04/24 00:48:47;;;;;;;;;2.00;2.00;;;;;20.03;46.09;100264.88;5023845;28;45468;-59
2023/04/24 00:51:12;;;;;;;;;3.00;2.75;;;;;20.02;46.13;100257.91;5025203;28;45348;-60
2023/04/24 00:53:38;;;;;;;;;3.00;3.00;;;;;20.02;45.94;100263.19;5022567;28;45591;-57
2023/04/24 00:56:05;;;;;;;;;2.00;1.25;;;;;20.02;45.64;100263.19;5020449;28;56872;-58
2023/04/24 00:58:31;;;;;;;;;1.75;1.75;;;;;19.99;45.53;100260.75;5020800;28;45535;-59
2023/04/24 01:00:57;;;;;;;;;3.75;2.00;;;;;20.01;45.83;100266.75;5020245;28;45353;-59
2023/04/24 01:03:26;;;;;;;;;2.00;2.00;;;;;19.98;46.00;100268.72;5019959;28;45285;-57
2023/04/24 01:05:52;;;;;;;;;3.00;1.50;;;;;20.01;46.15;100277.28;5019491;28;45927;-57
2023/04/24 01:08:18;;;;;;;;;2.00;2.00;;;;;20.01;45.66;100276.44;5019790;28;45284;-59
2023/04/24 01:10:45;;;;;;;;;4.00;2.50;;;;;20.00;45.69;100267.72;5020284;28;45300;-59
2023/04/24 01:13:11;;;;;;;;;1.00;1.00;;;;;20.00;45.79;100278.25;5023105;28;45236;-57
2023/04/24 01:15:36;;;;;;;;;2.25;2.00;;;;;19.96;45.68;100267.97;5023560;28;45307;-58
2023/04/24 01:18:02;;;;;;;;;1.50;1.50;;;;;19.99;45.78;100273.91;5024967;28;59900;-59
2023/04/24 01:20:28;;;;;;;;;1.00;1.00;;;;;19.99;45.65;100268.66;5025407;28;45228;-58
2023/04/24 01:22:57;;;;;;;;;2.00;2.00;;;;;19.99;45.54;100268.66;5024400;28;45561;-59
2023/04/24 01:25:24;;;;;;;;;2.00;2.00;;;;;19.99;46.26;100265.16;5024876;28;46900;-58
2023/04/24 01:27:50;;;;;;;;;3.00;2.00;;;;;19.95;45.83;100256.63;5025395;28;45726;-58
2023/04/24 01:30:15;;;;;;;;;1.50;1.25;;;;;19.99;45.97;100262.53;5025516;28;45282;-58
2023/04/24 01:32:44;;;;;;;;;1.50;1.50;;;;;19.99;45.78;100273.06;5024578;28;45186;-58
2023/04/24 01:35:10;;;;;;;;;1.25;1.00;;;;;19.98;46.29;100274.84;5022180;28;47120;-57
2023/04/24 01:37:37;;;;;;;;;2.00;2.00;;;;;19.99;46.03;100270.41;5026023;28;45313;-58
2023/04/24 01:40:03;;;;;;;;;1.25;1.25;;;;;19.95;46.02;100269.78;5032461;28;45414;-57
2023/04/24 01:42:29;;;;;;;;;2.50;1.00;;;;;19.98;46.02;100281.88;5031141;28;45252;-58
2023/04/24 01:44:55;;;;;;;;;2.25;2.00;;;;;19.97;45.59;100281.06;5030214;28;45246;-57
2023/04/24 01:47:21;;;;;;;;;3.00;2.00;;;;;19.97;46.20;100288.09;5030399;28;45395;-59
2023/04/24 01:49:48;;;;;;;;;4.00;2.00;;;;;19.96;45.60;100287.25;5029110;28;45233;-58
2023/04/24 01:52:13;;;;;;;;;3.25;2.00;;;;;19.93;45.70;100279.53;5024454;28;45332;-57
2023/04/24 01:54:38;;;;;;;;;2.00;2.00;;;;;19.94;46.28;100286.50;5021934;28;46325;-59
2023/04/24 01:57:04;;;;;;;;;4.50;2.50;;;;;19.97;45.91;100296.84;5027897;28;67428;-59
2023/04/24 01:59:29;;;;;;;;;2.00;2.00;;;;;19.96;45.89;100297.78;5020674;28;45359;-58
2023/04/24 02:01:55;;;;;;;;;2.25;2.25;;;;;19.95;46.20;100293.44;5039915;28;44818;-57
2023/04/24 02:04:20;;;;;;;;;3.00;1.75;;;;;19.96;45.39;100302.16;5030528;28;46151;-58
2023/04/24 02:06:45;;;;;;;;;2.67;2.00;;;;;19.97;45.81;100309.13;5018833;28;63286;-57
2023/04/24 02:09:11;;;;;;;;;1.75;1.75;;;;;19.92;46.10;100301.50;5018867;28;45403;-60
2023/04/24 02:11:36;;;;;;;;;3.00;2.00;;;;;19.94;46.02;100302.28;5026871;28;45448;-59
2023/04/24 02:14:02;;;;;;;;;4.75;3.00;;;;;19.90;45.49;100296.38;5022401;28;46213;-58
2023/04/24 02:16:32;;;;;;;;;3.75;2.00;;;;;19.95;45.80;100309.22;5019066;28;52884;-59
2023/04/24 02:18:57;;;;;;;;;3.00;2.00;;;;;19.93;45.73;100305.84;5025817;28;45503;-59
2023/04/24 02:21:22;;;;;;;;;2.00;2.00;;;;;19.93;45.30;100311.97;5028529;28;45145;-57
2023/04/24 02:23:48;;;;;;;;;1.00;1.00;;;;;19.93;45.57;100311.97;5031846;28;46175;-59
2023/04/24 02:26:13;;;;;;;;;2.33;1.00;;;;;19.94;45.24;100323.31;5027621;28;61907;-57
2023/04/24 02:28:38;;;;;;;;;1.50;1.50;;;;;19.93;45.87;100313.72;5021319;28;47224;-59
2023/04/24 02:31:05;;;;;;;;;4.00;3.00;;;;;19.93;45.70;100311.97;5021589;28;45220;-59
2023/04/24 02:33:30;;;;;;;;;2.00;2.00;;;;;19.93;45.94;100326.88;5034354;28;46225;-58
2023/04/24 02:35:55;;;;;;;;;2.00;2.00;;;;;19.93;46.00;100326.88;5018658;28;51994;-58
2023/04/24 02:38:20;;;;;;;;;1.75;1.75;;;;;19.88;46.03;100313.19;5025886;28;46260;-58
2023/04/24 02:40:46;;;;;;;;;2.00;2.00;;;;;19.92;45.83;100325.19;5022937;28;45645;-57
2023/04/24 02:43:11;;;;;;;;;2.25;2.00;;;;;19.92;45.68;100325.19;5018239;28;53726;-57
2023/04/24 02:45:37;;;;;;;;;3.33;2.33;;;;;19.89;45.70;100325.41;5017520;28;68576;-59
2023/04/24 02:48:03;;;;;;;;;1.50;1.50;;;;;19.89;45.89;100320.97;5018251;28;45347;-57
2023/04/24 02:50:28;;;;;;;;;2.00;2.00;;;;;19.91;45.22;100323.50;5016779;28;62424;-57
2023/04/24 02:52:53;;;;;;;;;2.50;2.00;;;;;19.90;46.02;100322.66;5018322;28;46085;-59
2023/04/24 02:55:19;;;;;;;;;3.00;2.00;;;;;19.87;45.50;100332.53;5018360;28;45237;-57
2023/04/24 02:57:44;;;;;;;;;1.00;1.00;;;;;19.87;45.93;100335.16;5024394;28;45623;-59
2023/04/24 03:00:11;;;;;;;;;1.25;1.25;;;;;19.90;45.91;100340.22;5025299;28;45196;-58
2023/04/24 03:02:36;;;;;;;;;2.00;1.25;;;;;19.90;45.68;100335.81;5025163;28;45380;-57
2023/04/24 03:05:02;;;;;;;;;0.00;0.00;;;;;19.89;45.56;100342.00;5032533;28;44647;-57
2023/04/24 03:07:27;;;;;;;;;2.00;2.00;;;;;19.86;45.60;100336.94;5030344;28;45216;-59
2023/04/24 03:09:52;;;;;;;;;1.50;1.50;;;;;19.86;45.23;100334.28;5022540;28;45650;-58
2023/04/24 03:12:18;;;;;;;;;1.25;1.25;;;;;19.89;45.14;100346.44;5020471;28;45462;-58
2023/04/24 03:14:44;;;;;;;;;3.50;2.25;;;;;19.88;45.60;100342.13;5021546;28;45343;-57
2023/04/24 03:17:09;;;;;;;;;1.00;1.00;;;;;19.87;45.69;100336.00;5019711;28;45398;-59
2023/04/24 03:19:34;;;;;;;;;2.25;2.25;;;;;19.85;45.38;100347.50;5020742;28;45409;-59
2023/04/24 03:22:02;;;;;;;;;2.25;2.00;;;;;19.86;45.95;100354.50;5020929;28;46308;-59
2023/04/24 03:24:27;;;;;;;;;1.50;1.50;;;;;19.86;45.45;100342.19;5021671;28;45883;-58
2023/04/24 03:26:53;;;;;;;;;2.00;2.00;;;;;19.86;45.16;100342.19;5023573;28;45515;-58
2023/04/24 03:29:18;;;;;;;;;2.00;2.00;;;;;19.87;45.39;100356.19;5023739;28;53200;-58
2023/04/24 03:31:43;;;;;;;;;2.00;2.00;;;;;19.86;45.21;100354.50;5023549;28;46028;-58
2023/04/24 03:34:09;;;;;;;;;2.00;2.00;;;;;19.86;45.51;100351.88;5029554;28;45217;-59
2023/04/24 03:36:35;;;;;;;;;2.00;2.00;;;;;19.83;45.21;100341.50;5025457;28;45166;-59
2023/04/24 03:39:00;;;;;;;;;2.00;2.00;;;;;19.86;45.47;100354.50;5024926;28;45655;-60
2023/04/24 03:41:25;;;;;;;;;1.00;1.00;;;;;19.82;45.48;100343.28;5021921;28;47944;-59
2023/04/24 03:43:51;;;;;;;;;3.00;2.00;;;;;19.85;45.45;100340.47;5020745;28;53321;-59
2023/04/24 03:46:16;;;;;;;;;2.00;2.00;;;;;19.85;44.67;100339.63;5020213;28;45395;-60
2023/04/24 03:48:41;;;;;;;;;1.00;1.00;;;;;19.85;45.03;100350.16;5020282;28;45486;-60
2023/04/24 03:51:07;;;;;;;;;4.00;1.00;;;;;19.84;44.90;100353.72;5022819;28;46349;-58
2023/04/24 03:53:32;;;;;;;;;1.00;1.00;;;;;19.84;45.03;100351.94;5033826;28;52090;-58
2023/04/24 03:55:57;;;;;;;;;1.00;1.00;;;;;19.81;45.13;100359.16;5029734;28;45162;-58
2023/04/24 03:58:23;;;;;;;;;2.00;2.00;;;;;19.83;45.41;100357.28;5030704;28;45616;-58
2023/04/24 04:00:49;;;;;;;;;2.00;1.00;;;;;19.80;45.64;100370.59;5036127;28;46125;-59
2023/04/24 04:03:14;;;;;;;;;3.00;1.00;;;;;19.84;45.40;100378.25;5041510;28;45243;-59
2023/04/24 04:05:40;;;;;;;;;2.00;2.00;;;;;19.83;45.26;100380.94;5040871;28;45320;-60
2023/04/24 04:08:05;;;;;;;;;5.00;1.75;;;;;19.84;45.68;100387.91;5040236;28;45522;-57
2023/04/24 04:10:31;;;;;;;;;1.50;1.00;;;;;19.80;45.57;100384.59;5034761;28;46249;-59
2023/04/24 04:12:56;;;;;;;;;1.00;1.00;;;;;19.80;45.08;100384.59;5024570;28;45395;-57
2023/04/24 04:15:21;;;;;;;;;2.00;1.00;;;;;19.79;44.79;100396.06;5021819;28;45576;-59
2023/04/24 04:17:47;;;;;;;;;1.00;1.00;;;;;19.82;45.60;100392.41;5020726;28;47206;-58
2023/04/24 04:20:12;;;;;;;;;2.00;2.00;;;;;19.81;45.62;100396.81;5020504;28;46317;-57
2023/04/24 04:22:37;;;;;;;;;1.00;1.00;;;;;19.81;45.09;100391.56;5019977;28;63052;-56
2023/04/24 04:25:04;;;;;;;;;1.75;1.75;;;;;19.82;45.45;100402.91;5022348;28;45319;-57
2023/04/24 04:27:31;;;;;;;;;3.00;3.00;;;;;19.82;45.73;100403.78;5024942;28;45224;-58
2023/04/24 04:30:04;;;;;;;;;2.75;2.00;;;;;19.81;45.62;100407.34;5022127;28;45257;-58
2023/04/24 04:32:33;;;;;;;;;3.00;3.00;;;;;19.81;45.75;100415.22;5021347;28;45868;-57
2023/04/24 04:35:02;;;;;;;;;4.50;1.25;;;;;19.80;45.58;100412.66;5020450;28;45379;-57
2023/04/24 04:37:29;;;;;;;;;4.00;2.00;;;;;19.78;45.48;100418.03;5021103;28;45455;-58
2023/04/24 04:39:54;;;;;;;;;2.00;2.00;;;;;19.78;45.59;100415.41;5020224;28;47082;-58
2023/04/24 04:42:20;;;;;;;;;2.00;2.00;;;;;19.77;45.25;100418.97;5022724;28;45296;-58
2023/04/24 04:44:45;;;;;;;;;2.75;2.00;;;;;19.77;45.86;100422.47;5020902;28;45335;-58
2023/04/24 04:47:10;;;;;;;;;3.25;1.50;;;;;19.74;45.24;100427.88;5023253;28;45240;-58
2023/04/24 04:49:38;;;;;;;;;4.00;2.50;;;;;19.74;46.06;100432.28;5024563;28;45337;-58
2023/04/24 04:52:03;;;;;;;;;2.50;2.00;;;;;19.76;45.86;100428.66;5026588;28;45242;-58
2023/04/24 04:54:29;;;;;;;;;2.50;1.00;;;;;19.72;45.82;100419.25;5021955;28;45387;-58
2023/04/24 04:56:54;;;;;;;;;2.75;2.75;;;;;19.73;46.15;100428.81;5001063;28;45350;-57
2023/04/24 04:59:20;;;;;;;;;3.00;2.00;;;;;19.80;46.70;100444.22;4999117;28;47085;-58
2023/04/24 05:01:45;;;;;;;;;3.00;2.00;;;;;19.81;47.54;100438.03;4999363;28;45344;-57
2023/04/24 05:04:10;;;;;;;;;2.00;2.00;;;;;19.82;47.82;100445.00;4999993;28;58326;-57
2023/04/24 05:06:36;;;;;;;;;3.25;3.25;;;;;19.83;47.77;100451.94;5000543;28;45399;-56
2023/04/24 05:09:03;;;;;;;;;2.25;2.25;;;;;19.83;47.61;100452.81;5001021;28;47168;-58
2023/04/24 05:11:28;;;;;;;;;3.00;3.00;;;;;19.82;46.49;100455.50;4998204;28;46580;-57
2023/04/24 05:13:54;;;;;;;;;4.25;2.50;;;;;19.81;46.04;100453.81;4999258;28;45254;-56
2023/04/24 05:16:19;;;;;;;;;2.25;2.25;;;;;19.82;45.91;100463.41;5006481;28;45257;-57
2023/04/24 05:18:44;;;;;;;;;4.25;2.75;;;;;19.83;46.37;100468.59;5003812;28;47100;-57
2023/04/24 05:21:10;;;;;;;;;4.50;3.75;;;;;19.85;45.86;100471.13;4998841;28;45242;-56
2023/04/24 05:23:35;;;;;;;;;4.00;3.00;;;;;19.85;45.81;100481.63;4999191;28;46935;-58
2023/04/24 05:26:01;;;;;;;;;4.75;3.25;;;;;19.83;45.76;100476.47;4999410;28;45344;-58
2023/04/24 05:28:28;;;;;;;;;4.00;3.00;;;;;19.86;45.59;100488.63;4998144;28;46137;-57
2023/04/24 05:30:59;;;;;;;;;2.00;2.00;;;;;19.86;44.91;100489.47;4998370;28;45368;-59
2023/04/24 05:33:24;;;;;;;;;2.50;2.25;;;;;19.87;45.26;100495.59;4999344;28;45360;-57
2023/04/24 05:35:50;;;;;;;;;3.75;2.50;;;;;19.85;45.04;100500.88;4998736;28;45333;-58
2023/04/24 05:38:17;;;;;;;;;3.50;3.50;;;;;19.88;45.05;100505.16;5000117;28;45981;-57
2023/04/24 05:40:43;;;;;;;;;3.00;3.00;;;;;19.89;44.66;100507.69;4999788;28;45174;-57
2023/04/24 05:43:08;;;;;;;;;4.00;3.00;;;;;19.89;44.93;100507.69;5001532;28;49058;-58
2023/04/24 05:45:35;;;;;;;;;3.50;2.25;;;;;19.88;44.62;100508.63;5003608;28;48472;-59
2023/04/24 05:48:01;;;;;;;;;3.00;3.00;;;;;19.92;44.86;100511.94;5009405;28;47135;-57
2023/04/24 05:50:26;;;;;;;;;4.75;3.00;;;;;19.89;44.29;100517.38;5006049;28;45303;-58
2023/04/24 05:52:52;;;;;;;;;4.00;2.25;;;;;19.94;44.00;100528.47;5000854;28;45383;-58
2023/04/24 05:55:18;;;;;;;;;4.00;3.00;;;;;19.94;43.91;100531.09;5002835;28;45349;-58
2023/04/24 05:57:43;;;;;;;;;3.75;3.00;;;;;19.94;43.80;100531.09;5004806;28;46090;-57
2023/04/24 06:00:11;;;;;;;;;3.00;3.00;;;;;19.95;44.05;100540.69;5001228;28;51106;-58
2023/04/24 06:02:37;;;;;;;;;3.75;3.75;;;;;19.96;43.62;100537.13;5006585;28;45368;-58
2023/04/24 06:05:04;;;;;;;;;3.00;2.00;;;;;19.96;43.78;100546.78;5006815;28;45150;-56
2023/04/24 06:07:30;;;;;;;;;3.25;3.00;;;;;19.95;43.27;100548.59;4999008;28;46322;-56
2023/04/24 06:09:55;;;;;;;;;4.00;4.00;;;;;19.94;43.80;100549.53;4999084;28;45406;-57
2023/04/24 06:12:21;;;;;;;;;5.25;4.25;;;;;19.92;42.96;100554.88;5002159;28;45438;-57
2023/04/24 06:14:46;;;;;;;;;4.00;4.00;;;;;19.93;43.43;100559.22;5004763;28;45293;-59
2023/04/24 06:17:11;;;;;;;;;2.25;2.25;;;;;19.96;43.20;100567.84;5000461;28;46061;-58
2023/04/24 06:19:36;;;;;;;;;15.00;6.00;;;;;19.95;43.24;100571.44;4998467;28;47112;-58
2023/04/24 06:22:02;;;;;;;;;10.00;6.00;;;;;19.95;43.31;100572.25;4998574;28;45260;-58
2023/04/24 06:24:28;;;;;;;;;9.25;5.00;;;;;19.96;43.30;100583.63;5001450;28;45261;-57
2023/04/24 06:26:54;;;;;;;;;9.00;7.00;;;;;19.95;43.61;100582.78;5001205;28;45596;-58
2023/04/24 06:29:19;;;;;;;;;13.25;8.00;;;;;19.95;42.67;100585.41;5002607;28;45449;-58
2023/04/24 06:31:44;;;;;;;;;14.75;9.75;;;;;19.95;42.79;100589.84;5001019;28;45402;-58
2023/04/24 06:34:10;;;;;;;;;13.75;10.00;;;;;19.94;43.12;100591.59;4997251;28;56823;-58
2023/04/24 06:36:35;;;;;;;;;18.75;11.00;;;;;19.95;42.85;100592.47;4998220;28;45345;-57
2023/04/24 06:39:01;;;;;;;;;17.00;11.75;;;;;19.95;42.82;100592.47;4999050;28;45264;-57
2023/04/24 06:41:28;;;;;;;;;15.50;9.50;;;;;19.95;42.80;100593.31;5009322;28;45165;-57
2023/04/24 06:43:53;;;;;;;;;14.00;12.25;;;;;19.95;43.12;100597.72;5002121;28;45274;-58
2023/04/24 06:46:18;;;;;;;;;11.75;9.75;;;;;19.93;42.88;100603.91;4999908;28;47148;-58
2023/04/24 06:48:44;;;;;;;;;20.25;10.75;;;;;19.93;42.51;100608.31;5004353;28;45360;-58
2023/04/24 06:51:09;;;;;;;;;16.25;10.50;;;;;19.93;42.70;100605.69;5003586;28;45412;-58
2023/04/24 06:53:35;;;;;;;;;13.00;8.00;;;;;19.94;42.64;100610.00;5005648;28;45628;-58
2023/04/24 06:56:00;;;;;;;;;15.50;10.25;;;;;19.91;42.87;100607.56;5011133;28;64946;-58
2023/04/24 06:58:26;;;;;;;;;15.00;10.50;;;;;19.91;42.76;100612.81;5004340;28;45339;-56
2023/04/24 07:00:51;;;;;;;;;15.75;10.75;;;;;19.88;42.30;100602.47;5004950;28;45208;-58
2023/04/24 07:03:16;;;;;;;;;13.00;8.75;;;;;19.93;43.04;100605.69;5001581;28;45584;-57
2023/04/24 07:05:42;;;;;;;;;14.50;10.00;;;;;19.94;42.87;100602.13;4997583;28;45431;-58
2023/04/24 07:08:08;;;;;;;;;14.50;8.75;;;;;19.95;42.22;100605.63;5004055;28;45312;-57
2023/04/24 07:10:35;;;;;;;;;14.00;9.50;;;;;19.88;42.28;100597.22;5000780;28;45289;-59
2023/04/24 07:13:01;;;;;;;;;13.50;8.75;;;;;19.87;42.46;100608.69;4998271;28;45553;-58
2023/04/24 07:15:26;;;;;;;;;14.50;8.75;;;;;19.97;42.90;100619.50;4997685;28;47088;-59
2023/04/24 07:17:52;;;;;;;;;15.50;9.00;;;;;19.97;42.10;100612.47;4997239;28;45407;-60
2023/04/24 07:20:17;;;;;;;;;14.25;8.00;;;;;19.89;41.98;100598.94;4999194;28;45297;-59
2023/04/24 07:22:42;;;;;;;;;11.25;8.00;;;;;19.97;42.38;100617.75;4998725;28;45299;-59
2023/04/24 07:25:08;;;;;;;;;6.50;5.00;;;;;19.90;41.80;100611.13;4997164;28;64333;-59
2023/04/24 07:27:34;;;;;;;;;8.25;6.25;;;;;19.90;41.97;100604.09;4999479;28;45233;-58
2023/04/24 07:30:00;;;;;;;;;8.00;6.00;;;;;19.99;42.17;100613.25;4998374;28;45470;-58
2023/04/24 07:32:25;;;;;;;;;8.00;7.00;;;;;19.99;42.18;100620.28;5002908;28;45574;-59
2023/04/24 07:34:51;;;;;;;;;9.75;7.00;;;;;19.98;42.20;100619.44;5004662;28;54627;-59
2023/04/24 07:37:16;;;;;;;;;7.25;6.50;;;;;19.91;42.23;100610.19;5003018;28;45374;-60
2023/04/24 07:39:42;;;;;;;;;10.75;8.50;;;;;19.92;42.09;100617.13;5002058;28;45407;-59
2023/04/24 07:42:07;;;;;;;;;9.00;7.00;;;;;19.93;42.34;100616.22;5003673;28;45332;-59
2023/04/24 07:44:33;;;;;;;;;9.50;8.50;;;;;20.00;42.40;100637.75;5000245;28;46217;-59
2023/04/24 07:46:58;;;;;;;;;11.25;7.00;;;;;19.99;42.05;100631.66;4998267;28;52101;-58
2023/04/24 07:49:24;;;;;;;;;9.50;6.00;;;;;19.99;41.67;100642.19;4997639;28;45266;-57
2023/04/24 07:51:50;;;;;;;;;4.00;3.50;;;;;19.99;41.93;100641.31;4998021;28;45227;-59
2023/04/24 07:54:15;;;;;;;;;10.00;8.25;;;;;19.95;41.88;100638.03;5001604;28;47051;-59
2023/04/24 07:56:42;;;;;;;;;12.50;8.50;;;;;19.92;42.45;100639.03;5006822;28;45265;-44
2023/04/24 07:59:09;;;;;;;;;12.25;9.00;;;;;20.05;41.71;100647.09;5008551;28;45313;-66
2023/04/24 08:01:35;;;;;;;;;8.00;7.00;;;;;20.01;41.42;100652.63;5010757;28;45606;-43
2023/04/24 08:04:01;;;;;;;;;8.00;6.50;;;;;20.00;41.30;100648.28;5012618;28;45431;-38
2023/04/24 08:06:30;;;;;;;;;11.25;8.25;;;;;19.94;41.47;100652.09;5013460;28;45253;-38
2023/04/24 08:08:58;;;;;;;;;7.25;6.25;;;;;19.93;41.54;100666.19;5020418;28;45223;-38
2023/04/24 08:11:24;;;;;;;;;7.75;7.00;;;;;19.88;42.13;100661.19;5021725;28;45503;-37
2023/04/24 08:13:49;;;;;;;;;9.00;8.00;;;;;19.84;42.08;100658.78;5017825;28;46134;-38
2023/04/24 08:16:15;;;;;;;;;7.25;6.75;;;;;19.81;41.96;100659.81;5009009;28;45789;-38
2023/04/24 08:18:40;;;;;;;;;8.75;6.25;;;;;19.77;41.76;100663.53;5018499;28;45316;-37
2023/04/24 08:21:05;;;;;;;;;9.75;7.50;;;;;19.79;41.87;100666.91;5017804;28;45300;-37
2023/04/24 08:23:31;;;;;;;;;11.00;7.75;;;;;19.78;42.16;100666.09;5006015;28;46505;-37
2023/04/24 08:25:57;;;;;;;;;7.00;7.00;;;;;19.76;41.99;100667.94;5002883;28;45406;-38
2023/04/24 08:28:23;;;;;;;;;11.75;7.25;;;;;19.76;41.53;100667.94;5001011;28;45391;-38
2023/04/24 08:30:48;;;;;;;;;10.00;8.00;;;;;19.74;42.17;100656.66;5002981;28;45515;-38
2023/04/24 08:33:14;;;;;;;;;8.50;8.50;;;;;19.76;42.73;100660.06;5001846;28;48059;-37
2023/04/24 10:13:52;;;;;;;;;11.00;9.50;;;;;19.68;43.84;100699.03;6084844;22;46276;-45
2023/04/24 10:16:18;;;;;;;;;10.25;7.00;;;;;19.69;43.49;100698.13;4995505;28;45930;-46
2023/04/24 10:18:44;;;;;;;;;11.25;7.00;;;;;19.70;44.27;100702.44;4997182;28;45296;-45
2023/04/24 10:21:10;;;;;;;;;8.00;8.00;;;;;19.72;43.71;100703.22;4995107;28;45455;-45
2023/04/24 10:23:35;;;;;;;;;8.75;8.00;;;;;19.69;44.08;100694.66;4994931;28;45365;-46
2023/04/24 10:26:01;;;;;;;;;8.25;8.00;;;;;19.75;44.02;100708.31;4996301;28;45475;-45
2023/04/24 10:28:28;;;;;;;;;8.75;8.75;;;;;19.75;43.59;100697.81;4996806;28;45310;-46
2023/04/24 10:30:54;;;;;;;;;11.75;8.50;;;;;19.75;43.10;100707.44;4996922;28;45596;-48
2023/04/24 10:33:22;;;;;;;;;11.50;10.25;;;;;19.72;42.82;100703.22;4995390;28;46210;-44
2023/04/24 10:35:50;;;;;;;;;9.00;9.00;;;;;19.70;43.52;100709.50;4996584;28;45245;-48
2023/04/24 10:38:24;;;;;;;;;11.50;8.00;;;;;19.75;43.82;100704.81;4996425;28;45257;-45
2023/04/24 10:40:49;;;;;;;;;10.75;9.25;;;;;19.78;43.61;100710.78;4997160;28;45196;-45
2023/04/24 10:43:18;;;;;;;;;11.00;9.25;;;;;19.83;43.71;100709.69;4996183;28;46367;-48
2023/04/24 10:46:12;;;;;;;;;10.00;8.25;;;;;19.86;43.48;100709.56;4996224;28;45902;-47
2023/04/24 10:48:43;;;;;;;;;10.00;8.25;;;;;19.84;43.95;100698.22;4996601;28;45360;-48
2023/04/24 10:51:12;;;;;;;;;10.25;9.25;;;;;19.89;43.86;100715.47;4996663;28;45371;-46
2023/04/24 10:53:38;;;;;;;;;10.75;9.50;;;;;19.91;43.80;100712.75;4996006;28;47072;-45
2023/04/24 10:56:06;;;;;;;;;9.50;8.75;;;;;19.93;43.63;100705.63;4996312;28;45316;-45
2023/04/24 10:58:44;;;;;;;;;12.00;11.00;;;;;19.94;43.56;100707.34;4995418;28;45491;-46
2023/04/24 11:01:26;;;;;;;;;13.00;10.00;;;;;19.96;43.35;100709.88;4996527;28;45523;-45
2023/04/24 11:03:56;;;;;;;;;13.75;11.25;;;;;19.95;44.09;100698.53;4996250;28;47409;-44
2023/04/24 11:06:36;;;;;;;;;10.25;8.25;;;;;19.95;44.05;100688.00;4996595;28;45750;-45
2023/04/24 11:09:16;;;;;;;;;10.75;9.00;;;;;19.91;43.96;100691.72;5011560;28;45462;-44
2023/04/24 11:11:46;;;;;;;;;11.75;10.00;;;;;19.97;43.94;100701.91;4996320;28;45386;-43
2023/04/24 11:14:14;;;;;;;;;13.00;11.25;;;;;19.93;44.17;100687.22;4995917;28;45317;-44
2023/04/24 11:16:57;;;;;;;;;13.75;11.25;;;;;19.99;43.34;100704.44;4994777;28;45774;-44
2023/04/24 11:19:26;;;;;;;;;11.00;9.75;;;;;19.99;43.40;100697.44;4996522;28;45355;-45
2023/04/24 11:22:03;;;;;;;;;10.25;10.25;;;;;19.99;44.07;100705.31;4996479;28;45252;-42
2023/04/24 11:24:28;;;;;;;;;12.00;11.00;;;;;19.99;44.09;100702.69;4995934;28;47494;-45
2023/04/24 11:26:58;;;;;;;;;13.75;10.00;;;;;20.00;44.17;100706.16;4996412;28;45873;-45
2023/04/24 11:29:38;;;;;;;;;13.00;9.25;;;;;20.01;43.59;100703.44;4999868;28;45457;-43
2023/04/24 11:32:19;;;;;;;;;12.25;11.25;;;;;20.01;43.12;100698.16;4999565;28;45318;-45
2023/04/24 11:34:51;;;;;;;;;9.25;8.75;;;;;20.03;42.94;100690.22;4999133;28;47258;-46
2023/04/24 11:37:17;;;;;;;;;10.75;9.00;;;;;20.00;43.08;100683.34;4999341;28;45953;-42
2023/04/24 11:39:43;;;;;;;;;13.25;10.50;;;;;20.06;42.40;100690.88;4999397;28;45402;-47
2023/04/24 11:42:15;;;;;;;;;12.25;8.50;;;;;20.02;41.23;100689.34;4999388;28;45268;-51
2023/04/24 11:44:41;;;;;;;;;17.00;11.50;;;;;19.96;41.36;100678.31;4998879;28;48222;-53
2023/04/24 11:47:07;;;;;;;;;67.25;35.50;;;;;19.97;41.45;100687.91;4998977;28;45320;-53
2023/04/24 11:49:33;;;;;;;;;13.75;12.00;;;;;19.94;42.04;100686.28;4999126;28;45383;-50
2023/04/24 11:52:01;;;;;;;;;16.67;10.67;;;;;19.97;42.17;100685.28;4998764;28;48530;-49
2023/04/24 11:54:26;;;;;;;;;14.75;10.50;;;;;20.03;41.41;100671.78;4999047;28;46375;-46
2023/04/24 11:56:52;;;;;;;;;12.00;9.00;;;;;20.13;41.08;100680.00;4999272;28;45219;-49
2023/04/24 11:59:17;;;;;;;;;9.00;8.00;;;;;20.26;40.76;100678.38;4999086;28;45187;-46
2023/04/24 12:01:44;;;;;;;;;11.75;9.25;;;;;20.30;41.68;100682.53;4998003;28;45173;-44
2023/04/24 12:04:09;;;;;;;;;10.50;8.00;;;;;20.33;41.28;100682.38;4998796;28;46263;-46
2023/04/24 12:06:35;;;;;;;;;10.25;8.75;;;;;20.35;41.78;100679.66;4998679;28;45366;-43
2023/04/24 12:09:00;;;;;;;;;12.75;10.50;;;;;20.36;42.03;100682.19;4999008;28;45367;-45
2023/04/24 12:11:26;;;;;;;;;10.75;8.00;;;;;20.38;42.71;100682.94;4999374;28;45429;-43
2023/04/24 12:13:51;;;;;;;;;11.25;8.00;;;;;20.34;42.67;100673.53;4998036;28;46272;-48
2023/04/24 12:16:16;;;;;;;;;9.67;8.67;;;;;20.42;42.75;100681.00;4994909;28;57165;-49
2023/04/24 12:18:46;;;;;;;;;13.67;9.33;;;;;20.43;42.57;100676.59;4997962;28;45912;-45
2023/04/24 12:21:26;;;;;;;;;8.25;6.75;;;;;20.38;42.17;100664.53;4998823;28;45336;-43
2023/04/24 12:23:55;;;;;;;;;11.50;10.50;;;;;20.44;42.51;100680.91;4998369;28;47330;-43
2023/04/24 12:26:22;;;;;;;;;11.75;9.25;;;;;20.38;43.14;100674.22;4998015;28;45405;-45
2023/04/24 12:28:49;;;;;;;;;9.75;8.75;;;;;20.38;43.50;100669.78;5013809;28;45360;-46
2023/04/24 12:31:20;;;;;;;;;17.75;10.25;;;;;20.42;44.10;100680.16;4998370;28;45537;-44
2023/04/24 12:33:45;;;;;;;;;14.50;9.50;;;;;20.42;44.31;100669.63;4998301;28;46344;-46
2023/04/24 12:36:12;;;;;;;;;10.75;9.50;;;;;20.42;44.33;100674.88;4998133;28;45311;-45
2023/04/24 12:38:40;;;;;;;;;13.50;10.50;;;;;20.39;44.18;100671.50;4998288;28;45354;-46
2023/04/24 12:41:08;;;;;;;;;13.25;9.50;;;;;20.38;44.20;100669.78;4998430;28;45461;-46
2023/04/24 12:43:34;;;;;;;;;11.25;9.50;;;;;20.38;44.70;100671.59;4998043;28;46533;-47
2023/04/24 12:46:00;;;;;;;;;10.75;9.50;;;;;20.36;44.41;100668.19;4996416;28;45405;-46
2023/04/24 12:48:27;;;;;;;;;10.50;8.25;;;;;20.34;44.76;100670.88;4999006;28;45312;-44
2023/04/24 12:50:52;;;;;;;;;14.50;11.25;;;;;20.31;45.23;100673.72;4998385;28;45347;-46
2023/04/24 12:53:18;;;;;;;;;12.50;10.75;;;;;20.31;44.98;100676.34;5004478;28;47301;-47
2023/04/24 12:55:44;;;;;;;;;13.25;11.50;;;;;20.30;45.39;100671.16;4978299;28;45435;-45